createdAt,value
2023-04-03T00:00:29.306Z,2.80
2023-04-03T00:05:31.584Z,3.03
2023-04-03T00:10:33.792Z,4.28
2023-04-03T00:15:37.059Z,2.88
2023-04-03T00:20:39.490Z,5.88
2023-04-03T00:25:42.098Z,7.78
2023-04-03T00:30:44.204Z,5.22
2023-04-03T00:35:46.302Z,3.10
2023-04-03T00:40:50.434Z,5.45
2023-04-03T00:45:54.661Z,4.07
2023-04-03T00:50:57.689Z,5.90
2023-04-03T00:56:01.077Z,2.85
2023-04-03T01:01:09.253Z,3.78
2023-04-03T01:06:11.618Z,4.13
2023-04-03T01:11:14.158Z,4.47
2023-04-03T01:16:16.736Z,5.57
2023-04-03T01:21:28.585Z,3.97
2023-04-03T01:26:31.084Z,3.33
2023-04-03T01:31:47.003Z,4.32
2023-04-03T01:36:49.450Z,3.55
2023-04-03T01:41:52.160Z,4.13
2023-04-03T01:47:01.639Z,3.90
2023-04-03T01:52:05.487Z,4.25
2023-04-03T01:57:07.799Z,4.18
2023-04-03T02:02:10.640Z,3.67
2023-04-03T02:07:12.965Z,2.78
2023-04-03T02:12:15.022Z,4.28
2023-04-03T02:17:17.156Z,3.33
2023-04-03T02:22:19.445Z,4.30
2023-04-03T02:27:21.675Z,4.20
2023-04-03T02:32:24.850Z,2.40
2023-04-03T02:37:27.078Z,4.75
2023-04-03T02:42:30.338Z,2.08
2023-04-03T02:47:32.520Z,3.85
2023-04-03T02:52:35.894Z,4.82
2023-04-03T02:57:38.216Z,3.85
2023-04-03T03:02:40.810Z,2.90
2023-04-03T03:07:42.948Z,5.35
2023-04-03T03:12:45.031Z,4.53
2023-04-03T03:17:47.189Z,3.40
2023-04-03T03:22:49.300Z,4.47
2023-04-03T03:27:51.416Z,2.30
2023-04-03T03:32:53.840Z,2.05
2023-04-03T03:37:56.277Z,2.25
2023-04-03T03:42:58.837Z,1.45
2023-04-03T03:48:02.015Z,3.22
2023-04-03T03:53:04.572Z,2.15
2023-04-03T03:58:06.816Z,4.55
2023-04-03T04:03:10.322Z,6.75
2023-04-03T04:08:12.560Z,3.65
2023-04-03T04:13:15.512Z,2.35
2023-04-03T04:18:18.959Z,3.17
2023-04-03T04:23:23.628Z,2.88
2023-04-03T04:28:26.816Z,3.60
2023-04-03T04:33:31.153Z,2.63
2023-04-03T04:38:36.581Z,2.90
2023-04-03T04:43:39.183Z,2.75
2023-04-03T04:48:41.908Z,3.08
2023-04-03T04:53:45.241Z,3.25
2023-04-03T04:58:50.486Z,2.30
2023-04-03T05:03:55.470Z,2.63
2023-04-03T05:09:00.856Z,3.38
2023-04-03T05:14:06.326Z,4.03
2023-04-03T05:19:09.587Z,4.82
2023-04-03T05:24:13.144Z,3.30
2023-04-03T05:29:18.427Z,3.03
2023-04-03T05:34:22.112Z,4.40
2023-04-03T05:39:27.310Z,3.58
2023-04-03T05:44:29.935Z,4.78
2023-04-03T05:49:32.772Z,3.05
2023-04-03T05:54:35.327Z,3.80
2023-04-03T05:59:50.894Z,3.27
2023-04-03T06:04:53.949Z,3.63
2023-04-03T06:09:57.622Z,3.85
2023-04-03T06:14:59.970Z,3.30
2023-04-03T06:20:02.278Z,5.07
2023-04-03T06:25:05.890Z,4.93
2023-04-03T06:30:08.829Z,3.30
2023-04-03T06:35:11.730Z,3.72
2023-04-03T06:40:21.871Z,3.53
2023-04-03T06:45:25.785Z,3.40
2023-04-03T06:50:27.936Z,2.40
2023-04-03T06:55:30.103Z,3.50
2023-04-03T07:00:32.357Z,6.07
2023-04-03T07:05:34.442Z,5.57
2023-04-03T07:10:37.037Z,3.00
2023-04-03T07:15:39.347Z,4.15
2023-04-03T07:20:42.511Z,7.68
2023-04-03T07:25:49.788Z,6.97
2023-04-03T07:31:04.628Z,9.32
2023-04-03T07:36:08.442Z,5.93
2023-04-03T07:41:16.354Z,8.90
2023-04-03T07:46:18.756Z,4.05
2023-04-03T07:51:21.376Z,7.13
2023-04-03T07:56:23.955Z,6.68
2023-04-03T08:01:26.154Z,6.30
2023-04-03T08:06:44.817Z,9.32
2023-04-03T08:11:48.358Z,9.80
2023-04-03T08:16:51.018Z,8.68
2023-04-03T08:21:53.896Z,7.47
2023-04-03T08:26:56.541Z,10.10
2023-04-03T08:31:58.819Z,4.10
2023-04-03T08:37:01.153Z,9.23
2023-04-03T08:42:14.536Z,5.38
2023-04-03T08:47:27.243Z,5.40
2023-04-03T08:52:56.106Z,7.35
2023-04-03T08:58:11.540Z,5.00
2023-04-03T09:03:16.033Z,5.50
2023-04-03T09:08:24.156Z,4.55
2023-04-03T09:13:41.200Z,5.32
2023-04-03T09:18:49.258Z,7.78
2023-04-03T09:23:55.925Z,11.98
2023-04-03T09:29:01.851Z,8.30
2023-04-03T09:39:29.468Z,3.95
2023-04-03T09:44:38.041Z,6.15
2023-04-03T09:49:40.365Z,7.30
2023-04-03T09:54:42.550Z,7.78
2023-04-03T10:00:06.783Z,8.07
2023-04-03T10:05:33.206Z,7.80
2023-04-03T10:16:02.733Z,8.85
2023-04-03T10:21:17.539Z,5.93
2023-04-03T10:26:46.319Z,6.30
2023-04-03T10:32:17.750Z,6.25
2023-04-03T10:37:27.071Z,9.65
2023-04-03T10:43:01.307Z,4.47
2023-04-03T10:48:15.817Z,8.60
2023-04-03T10:53:40.636Z,4.15
2023-04-03T10:59:15.316Z,4.65
2023-04-03T11:04:22.142Z,7.55
2023-04-03T11:09:39.432Z,5.82
2023-04-03T11:14:42.057Z,7.85
2023-04-03T11:20:10.706Z,7.20
2023-04-03T11:25:12.745Z,7.40
2023-04-03T11:30:22.300Z,6.78
2023-04-03T11:35:26.038Z,7.95
2023-04-03T11:40:34.465Z,5.30
2023-04-03T11:45:51.936Z,5.88
2023-04-03T11:50:54.499Z,7.43
2023-04-03T11:55:59.866Z,9.00
2023-04-03T12:01:10.323Z,5.90
2023-04-03T12:06:14.684Z,9.07
2023-04-03T12:11:27.959Z,7.53
2023-04-03T12:16:50.444Z,8.18
2023-04-03T12:21:59.477Z,5.28
2023-04-03T12:27:01.596Z,5.60
2023-04-03T12:32:44.088Z,7.50
2023-04-03T12:38:00.383Z,9.85
2023-04-03T12:43:40.138Z,9.43
2023-04-03T12:48:58.627Z,7.30
2023-04-03T12:54:14.137Z,9.25
2023-04-03T12:59:27.716Z,11.48
2023-04-03T13:04:32.092Z,12.20
2023-04-03T13:09:34.298Z,10.35
2023-04-03T13:14:37.489Z,12.15
2023-04-03T13:19:40.668Z,11.98
2023-04-03T13:24:44.277Z,11.50
2023-04-03T13:29:52.332Z,12.32
2023-04-03T13:34:55.093Z,7.18
2023-04-03T13:40:13.958Z,8.13
2023-04-03T13:45:24.934Z,10.88
2023-04-03T13:50:29.572Z,11.30
2023-04-03T13:55:56.722Z,14.65
2023-04-03T14:01:09.823Z,10.88
2023-04-03T14:06:15.264Z,16.83
2023-04-03T14:11:24.731Z,15.02
2023-04-03T14:16:30.911Z,12.73
2023-04-03T14:21:33.467Z,11.77
2023-04-03T14:26:35.831Z,13.32
2023-04-03T14:31:38.121Z,12.57
2023-04-03T14:36:42.300Z,13.32
2023-04-03T14:41:46.172Z,16.90
2023-04-03T14:46:56.278Z,14.77
2023-04-03T14:51:59.467Z,10.77
2023-04-03T14:57:02.507Z,10.18
2023-04-03T15:02:22.647Z,11.85
2023-04-03T15:07:26.517Z,14.00
2023-04-03T15:12:28.665Z,12.48
2023-04-03T15:17:31.180Z,11.52
2023-04-03T15:22:33.269Z,12.98
2023-04-03T15:27:35.843Z,12.10
2023-04-03T15:32:37.915Z,13.85
2023-04-03T15:37:40.216Z,13.77
2023-04-03T15:42:42.321Z,14.10
2023-04-03T15:47:44.571Z,12.98
2023-04-03T15:52:46.836Z,14.30
2023-04-03T15:57:48.897Z,14.05
2023-04-03T16:03:05.744Z,16.00
2023-04-03T16:08:08.940Z,16.15
2023-04-03T16:13:11.426Z,12.55
2023-04-03T16:18:14.952Z,14.32
2023-04-03T16:28:20.689Z,14.93
2023-04-03T16:33:23.082Z,16.33
2023-04-03T16:38:25.340Z,14.23
2023-04-03T16:43:28.107Z,13.82
2023-04-03T16:48:32.220Z,13.18
2023-04-03T16:53:34.786Z,12.82
2023-04-03T16:58:37.304Z,12.35
2023-04-03T17:03:40.071Z,12.43
2023-04-03T17:08:42.711Z,14.82
2023-04-03T17:13:44.946Z,12.60
2023-04-03T17:18:48.540Z,12.18
2023-04-03T17:23:55.414Z,10.00
2023-04-03T17:28:57.837Z,11.40
2023-04-03T17:34:01.855Z,13.32
2023-04-03T17:39:04.228Z,14.20
2023-04-03T17:44:06.731Z,11.23
2023-04-03T17:49:10.696Z,13.10
2023-04-03T17:54:13.581Z,11.93
2023-04-03T17:59:17.222Z,13.40
2023-04-03T18:04:19.411Z,15.52
2023-04-03T18:09:25.544Z,10.52
2023-04-03T18:14:28.463Z,11.52
2023-04-03T18:19:30.809Z,10.85
2023-04-03T18:24:34.620Z,15.18
2023-04-03T18:29:38.252Z,11.07
2023-04-03T18:34:40.609Z,12.23
2023-04-03T18:39:42.884Z,9.15
2023-04-03T18:44:47.814Z,8.75
2023-04-03T18:49:50.720Z,8.90
2023-04-03T18:54:53.711Z,7.50
2023-04-03T18:59:55.814Z,6.05
2023-04-03T19:04:58.038Z,8.48
2023-04-03T19:10:01.104Z,7.38
2023-04-03T19:15:03.970Z,7.35
2023-04-03T19:20:07.162Z,9.43
2023-04-03T19:25:11.217Z,5.90
2023-04-03T19:30:14.063Z,11.25
2023-04-03T19:35:16.218Z,9.70
2023-04-03T19:40:18.936Z,7.22
2023-04-03T19:45:21.966Z,8.13
2023-04-03T19:50:24.282Z,10.25
2023-04-03T19:55:31.079Z,8.23
2023-04-03T20:00:33.370Z,6.60
2023-04-03T20:05:35.438Z,5.78
2023-04-03T20:10:40.568Z,6.85
2023-04-03T20:15:43.887Z,7.30
2023-04-03T20:20:56.570Z,9.43
2023-04-03T20:26:09.212Z,9.30
2023-04-03T20:31:13.720Z,9.77
2023-04-03T20:36:17.377Z,8.05
2023-04-03T20:41:20.680Z,7.93
2023-04-03T20:46:34.958Z,6.93
2023-04-03T20:51:45.355Z,10.50
2023-04-03T20:56:50.017Z,9.75
2023-04-03T21:01:52.620Z,6.90
2023-04-03T21:07:32.789Z,6.32
2023-04-03T21:13:12.421Z,4.93
2023-04-03T21:18:36.896Z,5.53
2023-04-03T21:23:39.004Z,7.22
2023-04-03T21:28:42.726Z,6.68
2023-04-03T21:33:45.207Z,5.60
2023-04-03T21:38:48.210Z,7.45
2023-04-03T21:43:50.327Z,7.82
2023-04-03T21:48:52.461Z,6.22
2023-04-03T21:53:55.351Z,6.22
2023-04-03T21:58:58.675Z,6.20
2023-04-03T22:04:01.896Z,5.07
2023-04-03T22:09:04.171Z,5.30
2023-04-03T22:14:06.260Z,9.50
2023-04-03T22:19:08.343Z,8.13
2023-04-03T22:24:10.400Z,8.70
2023-04-03T22:29:16.746Z,8.60
2023-04-03T22:34:19.825Z,6.32
2023-04-03T22:39:22.323Z,5.00
2023-04-03T22:44:25.772Z,7.40
2023-04-03T22:49:29.657Z,6.83
2023-04-03T22:54:31.694Z,5.50
2023-04-03T22:59:33.762Z,7.22
2023-04-03T23:04:36.447Z,11.70
2023-04-03T23:09:38.552Z,8.23
2023-04-03T23:14:40.628Z,6.05
2023-04-03T23:19:42.743Z,7.30
2023-04-03T23:24:45.532Z,6.40
2023-04-03T23:29:47.696Z,5.97
2023-04-03T23:34:49.837Z,5.80
2023-04-03T23:39:51.926Z,7.60
2023-04-03T23:44:53.990Z,6.22
2023-04-03T23:49:56.191Z,6.45
2023-04-03T23:54:58.732Z,7.88
